createdAt,value
2018-03-24T00:00:46.370Z,8.00
2018-03-24T00:03:14.816Z,7.90
2018-03-24T00:05:42.660Z,7.90
2018-03-24T00:08:10.540Z,7.80
2018-03-24T00:10:38.679Z,7.70
2018-03-24T00:13:06.132Z,7.70
2018-03-24T00:15:33.678Z,7.60
2018-03-24T00:18:01.143Z,7.50
2018-03-24T00:20:28.586Z,7.50
2018-03-24T00:22:56.063Z,7.50
2018-03-24T00:25:23.587Z,7.40
2018-03-24T00:27:52.192Z,7.30
2018-03-24T00:30:19.653Z,7.30
2018-03-24T00:32:47.635Z,7.30
2018-03-24T00:35:15.483Z,7.30
2018-03-24T00:37:42.935Z,7.30
2018-03-24T00:40:10.405Z,7.40
2018-03-24T00:42:38.133Z,7.90
2018-03-24T00:45:06.367Z,8.20
2018-03-24T00:47:33.970Z,8.20
2018-03-24T00:50:02.186Z,8.00
2018-03-24T00:52:29.661Z,8.00
2018-03-24T00:54:57.215Z,7.90
2018-03-24T00:57:24.672Z,7.70
2018-03-24T00:59:52.861Z,7.60
2018-03-24T01:02:20.320Z,7.40
2018-03-24T01:04:49.604Z,7.20
2018-03-24T01:07:17.591Z,7.20
2018-03-24T01:09:45.556Z,7.10
2018-03-24T01:12:13.530Z,7.00
2018-03-24T01:14:41.007Z,6.90
2018-03-24T01:17:09.564Z,6.70
2018-03-24T01:19:37.854Z,6.60
2018-03-24T01:22:05.308Z,6.60
2018-03-24T01:24:32.750Z,6.50
2018-03-24T01:27:00.248Z,6.40
2018-03-24T01:29:28.228Z,6.40
2018-03-24T01:31:55.704Z,6.30
2018-03-24T01:34:23.166Z,6.20
2018-03-24T01:36:51.049Z,6.20
2018-03-24T01:39:18.530Z,6.10
2018-03-24T01:41:46.011Z,6.20
2018-03-24T01:44:13.449Z,6.20
2018-03-24T01:46:41.765Z,6.40
2018-03-24T01:49:09.586Z,6.30
2018-03-24T01:51:37.030Z,6.40
2018-03-24T01:54:05.015Z,6.40
2018-03-24T01:56:32.457Z,6.40
2018-03-24T01:59:00.330Z,6.30
2018-03-24T02:01:27.776Z,6.20
2018-03-24T02:03:55.237Z,6.20
2018-03-24T02:06:23.249Z,6.10
2018-03-24T02:08:51.008Z,6.10
2018-03-24T02:11:18.714Z,6.00
2018-03-24T02:13:46.347Z,6.00
2018-03-24T02:16:13.777Z,5.90
2018-03-24T02:18:42.224Z,5.90
2018-03-24T02:21:12.780Z,5.90
2018-03-24T02:23:41.319Z,5.80
2018-03-24T02:26:08.776Z,5.80
2018-03-24T02:28:37.007Z,5.60
2018-03-24T02:31:04.457Z,5.60
2018-03-24T02:33:33.045Z,5.50
2018-03-24T02:36:00.832Z,5.50
2018-03-24T02:38:28.292Z,5.50
2018-03-24T02:40:55.759Z,5.50
2018-03-24T02:43:23.575Z,5.40
2018-03-24T02:45:51.800Z,5.40
2018-03-24T02:48:19.278Z,5.40
2018-03-24T02:50:46.725Z,5.30
2018-03-24T02:53:14.161Z,5.30
2018-03-24T02:55:42.172Z,5.30
2018-03-24T02:58:09.789Z,5.30
2018-03-24T03:00:37.277Z,5.20
2018-03-24T03:03:04.718Z,5.20
2018-03-24T03:05:33.323Z,5.30
2018-03-24T03:08:01.238Z,5.20
2018-03-24T03:10:29.103Z,5.30
2018-03-24T03:12:56.544Z,5.40
2018-03-24T03:15:24.102Z,5.40
2018-03-24T03:17:52.817Z,5.50
2018-03-24T03:20:20.295Z,5.50
2018-03-24T03:22:47.759Z,5.50
2018-03-24T03:25:15.226Z,5.50
2018-03-24T03:27:42.929Z,5.50
2018-03-24T03:30:13.214Z,5.40
2018-03-24T03:32:40.732Z,5.40
2018-03-24T03:35:08.754Z,5.30
2018-03-24T03:37:36.998Z,5.20
2018-03-24T03:40:04.792Z,5.20
2018-03-24T03:42:32.264Z,5.10
2018-03-24T03:45:00.957Z,5.00
2018-03-24T03:47:28.416Z,5.00
2018-03-24T03:49:55.856Z,5.00
2018-03-24T03:52:24.379Z,5.00
2018-03-24T03:54:51.965Z,5.00
2018-03-24T03:57:20.211Z,4.90
2018-03-24T03:59:48.101Z,4.90
2018-03-24T04:02:15.550Z,4.90
2018-03-24T04:04:43.539Z,4.90
2018-03-24T04:07:11.212Z,4.80
2018-03-24T04:09:39.050Z,4.80
2018-03-24T04:12:07.020Z,4.80
2018-03-24T04:14:34.464Z,4.80
2018-03-24T04:17:02.566Z,4.80
2018-03-24T04:19:30.004Z,4.80
2018-03-24T04:21:57.533Z,4.80
2018-03-24T04:24:24.989Z,4.80
2018-03-24T04:26:52.456Z,4.70
2018-03-24T04:29:19.926Z,4.70
2018-03-24T04:31:47.750Z,4.70
2018-03-24T04:34:15.962Z,4.70
2018-03-24T04:36:44.741Z,4.70
2018-03-24T04:39:12.678Z,4.70
2018-03-24T04:41:40.667Z,4.70
2018-03-24T04:44:08.467Z,4.70
2018-03-24T04:46:35.968Z,4.70
2018-03-24T04:49:04.781Z,4.60
2018-03-24T04:51:32.570Z,4.60
2018-03-24T04:54:00.048Z,4.60
2018-03-24T04:56:27.492Z,4.60
2018-03-24T04:58:55.116Z,4.60
2018-03-24T05:01:22.810Z,4.50
2018-03-24T05:03:50.584Z,4.50
2018-03-24T05:06:18.636Z,4.50
2018-03-24T05:08:46.095Z,4.40
2018-03-24T05:11:14.096Z,4.40
2018-03-24T05:13:42.339Z,4.40
2018-03-24T05:16:09.937Z,4.40
2018-03-24T05:18:37.456Z,4.40
2018-03-24T05:21:04.921Z,4.40
2018-03-24T05:23:32.398Z,4.30
2018-03-24T05:26:00.406Z,4.30
2018-03-24T05:28:29.633Z,4.30
2018-03-24T05:30:57.120Z,4.30
2018-03-24T05:33:24.763Z,4.30
2018-03-24T05:35:52.641Z,4.30
2018-03-24T05:38:21.696Z,4.30
2018-03-24T05:40:49.484Z,4.30
2018-03-24T05:43:17.458Z,4.40
2018-03-24T05:45:44.898Z,4.40
2018-03-24T05:48:12.626Z,4.40
2018-03-24T05:50:40.074Z,4.40
2018-03-24T05:53:07.540Z,4.40
2018-03-24T05:55:35.295Z,4.40
2018-03-24T05:58:02.757Z,4.40
2018-03-24T06:00:30.679Z,4.40
2018-03-24T06:02:58.150Z,4.40
2018-03-24T06:05:25.946Z,4.40
2018-03-24T06:07:53.846Z,4.40
2018-03-24T06:10:21.794Z,4.40
2018-03-24T06:12:49.302Z,4.40
2018-03-24T06:15:16.763Z,4.50
2018-03-24T06:17:44.353Z,4.50
2018-03-24T06:20:11.933Z,4.50
2018-03-24T06:22:39.392Z,4.50
2018-03-24T06:25:06.948Z,4.50
2018-03-24T06:27:34.756Z,4.60
2018-03-24T06:30:02.278Z,4.60
2018-03-24T06:32:29.768Z,4.60
2018-03-24T06:34:57.690Z,4.60
2018-03-24T06:37:25.573Z,4.60
2018-03-24T06:39:53.321Z,4.60
2018-03-24T06:42:20.788Z,4.60
2018-03-24T06:44:48.872Z,4.60
2018-03-24T06:47:16.331Z,4.60
2018-03-24T06:49:43.795Z,4.70
2018-03-24T06:52:12.022Z,4.70
2018-03-24T06:54:39.906Z,4.80
2018-03-24T06:57:07.671Z,4.80
2018-03-24T06:59:35.170Z,4.80
2018-03-24T07:02:02.645Z,4.90
2018-03-24T07:04:31.312Z,5.00
2018-03-24T07:06:58.807Z,5.00
2018-03-24T07:09:26.522Z,5.10
2018-03-24T07:11:54.312Z,5.10
2018-03-24T07:14:22.526Z,5.20
2018-03-24T07:16:50.049Z,5.20
2018-03-24T07:19:18.256Z,5.30
2018-03-24T07:21:45.797Z,5.30
2018-03-24T07:24:14.131Z,5.50
2018-03-24T07:26:41.625Z,5.50
2018-03-24T07:29:10.261Z,5.70
2018-03-24T07:31:37.709Z,5.70
2018-03-24T07:34:05.192Z,5.80
2018-03-24T07:36:32.858Z,5.90
2018-03-24T07:39:00.669Z,6.00
2018-03-24T07:41:28.833Z,6.10
2018-03-24T07:43:57.783Z,6.30
2018-03-24T07:46:26.038Z,6.30
2018-03-24T07:48:53.632Z,6.30
2018-03-24T07:51:21.919Z,6.50
2018-03-24T07:53:50.404Z,6.60
2018-03-24T07:56:18.657Z,6.70
2018-03-24T07:58:46.116Z,6.70
2018-03-24T08:01:13.923Z,6.80
2018-03-24T08:03:41.408Z,6.90
2018-03-24T08:06:09.113Z,7.00
2018-03-24T08:08:37.421Z,7.20
2018-03-24T08:11:05.232Z,7.20
2018-03-24T08:13:32.691Z,7.30
2018-03-24T08:16:00.402Z,7.40
2018-03-24T08:18:27.869Z,7.40
2018-03-24T08:20:55.337Z,7.60
2018-03-24T08:23:22.781Z,7.60
2018-03-24T08:25:50.297Z,7.70
2018-03-24T08:28:18.508Z,7.90
2018-03-24T08:30:46.002Z,7.80
2018-03-24T08:33:13.870Z,7.90
2018-03-24T08:35:41.524Z,8.00
2018-03-24T08:38:09.432Z,8.00
2018-03-24T08:40:37.915Z,8.10
2018-03-24T08:43:05.755Z,8.10
2018-03-24T08:45:33.216Z,8.20
2018-03-24T08:48:01.439Z,8.40
2018-03-24T08:50:29.180Z,8.30
2018-03-24T08:52:56.673Z,8.50
2018-03-24T08:55:24.146Z,8.60
2018-03-24T08:57:51.597Z,8.70
2018-03-24T09:00:19.151Z,8.70
2018-03-24T09:02:47.409Z,8.90
2018-03-24T09:05:15.221Z,8.90
2018-03-24T09:07:42.672Z,9.00
2018-03-24T09:10:10.687Z,9.10
2018-03-24T09:12:38.144Z,9.20
2018-03-24T09:15:06.206Z,9.30
2018-03-24T09:17:33.580Z,9.30
2018-03-24T09:20:01.026Z,9.40
2018-03-24T09:22:29.448Z,9.50
2018-03-24T09:24:57.095Z,9.60
2018-03-24T09:27:24.966Z,9.70
2018-03-24T09:29:52.404Z,9.70
2018-03-24T09:32:19.883Z,9.90
2018-03-24T09:34:48.380Z,10.00
2018-03-24T09:37:16.443Z,10.10
2018-03-24T09:39:43.939Z,10.20
2018-03-24T09:42:12.250Z,10.40
2018-03-24T09:44:40.852Z,10.40
2018-03-24T09:47:08.357Z,10.50
2018-03-24T09:49:37.330Z,10.60
2018-03-24T09:52:05.399Z,10.60
2018-03-24T09:54:34.694Z,10.80
2018-03-24T09:57:02.951Z,10.70
2018-03-24T09:59:30.423Z,10.90
2018-03-24T10:01:57.908Z,11.00
2018-03-24T10:04:26.220Z,11.10
2018-03-24T10:06:54.934Z,11.30
2018-03-24T10:09:22.402Z,11.30
2018-03-24T10:11:50.100Z,11.50
2018-03-24T10:14:17.555Z,11.60
2018-03-24T10:16:45.657Z,11.70
2018-03-24T10:19:13.838Z,11.90
2018-03-24T10:24:45.483Z,12.00
2018-03-24T10:27:13.406Z,12.00
2018-03-24T10:29:41.302Z,12.00
2018-03-24T10:32:08.799Z,12.10
2018-03-24T10:34:36.909Z,12.20
2018-03-24T10:37:04.963Z,12.30
2018-03-24T10:39:33.164Z,12.40
2018-03-24T10:42:01.501Z,12.80
2018-03-24T10:44:29.408Z,12.80
2018-03-24T10:46:58.169Z,13.00
2018-03-24T10:49:25.636Z,12.90
2018-03-24T10:51:53.118Z,13.00
2018-03-24T10:54:20.682Z,13.10
2018-03-24T10:56:48.359Z,13.10
2018-03-24T10:59:15.845Z,13.30
2018-03-24T11:01:43.314Z,13.40
2018-03-24T11:04:11.484Z,13.50
2018-03-24T11:06:39.453Z,13.70
2018-03-24T11:09:07.046Z,13.80
2018-03-24T11:11:34.823Z,13.90
2018-03-24T11:14:02.412Z,14.10
2018-03-24T11:16:30.027Z,14.20
2018-03-24T11:18:58.594Z,14.40
2018-03-24T11:21:26.060Z,14.40
2018-03-24T11:23:53.763Z,14.50
2018-03-24T11:26:21.210Z,14.70
2018-03-24T11:28:48.666Z,14.90
2018-03-24T11:31:16.377Z,15.00
2018-03-24T11:33:44.345Z,15.30
2018-03-24T11:36:12.335Z,15.40
2018-03-24T11:38:39.887Z,15.50
2018-03-24T11:41:07.359Z,15.60
2018-03-24T11:43:35.853Z,15.60
2018-03-24T11:46:03.341Z,15.60
2018-03-24T11:48:30.827Z,15.70
2018-03-24T11:50:58.327Z,15.70
2018-03-24T11:53:37.497Z,15.60
2018-03-24T11:56:05.190Z,15.50
2018-03-24T11:58:32.650Z,15.30
2018-03-24T12:01:00.498Z,15.00
2018-03-24T12:03:27.942Z,14.80
2018-03-24T12:05:56.134Z,14.60
2018-03-24T12:08:23.910Z,14.50
2018-03-24T12:10:52.336Z,14.20
2018-03-24T12:13:19.805Z,14.20
2018-03-24T12:15:47.381Z,14.10
2018-03-24T12:18:15.159Z,14.00
2018-03-24T12:20:42.629Z,14.00
2018-03-24T12:23:11.245Z,13.90
2018-03-24T12:25:38.690Z,13.90
2018-03-24T12:28:06.153Z,13.90
2018-03-24T12:30:33.865Z,13.80
2018-03-24T12:33:01.387Z,13.80
2018-03-24T12:35:30.009Z,13.70
2018-03-24T12:37:59.018Z,13.60
2018-03-24T12:40:27.492Z,13.60
2018-03-24T12:42:54.970Z,13.60
2018-03-24T12:45:23.613Z,13.50
2018-03-24T12:47:51.091Z,13.50
2018-03-24T12:50:18.569Z,13.50
2018-03-24T12:52:46.805Z,13.40
2018-03-24T12:55:14.257Z,13.40
2018-03-24T12:57:42.573Z,13.50
2018-03-24T13:00:11.232Z,13.50
2018-03-24T13:02:39.611Z,13.50
2018-03-24T13:05:07.377Z,13.50
2018-03-24T13:07:34.992Z,13.50
2018-03-24T13:10:02.644Z,13.60
2018-03-24T13:12:30.385Z,13.70
2018-03-24T13:14:58.834Z,13.70
2018-03-24T13:17:26.302Z,13.70
2018-03-24T13:19:53.854Z,13.80
2018-03-24T13:22:21.787Z,13.70
2018-03-24T13:24:49.465Z,13.70
2018-03-24T13:27:16.924Z,13.70
2018-03-24T13:29:44.577Z,13.70
2018-03-24T13:32:12.114Z,13.80
2018-03-24T13:34:40.537Z,13.80
2018-03-24T13:37:09.849Z,13.80
2018-03-24T13:39:38.186Z,13.70
2018-03-24T13:42:05.643Z,13.70
2018-03-24T13:44:33.569Z,13.70
2018-03-24T13:47:01.805Z,13.70
2018-03-24T13:49:29.265Z,13.70
2018-03-24T13:51:56.734Z,13.70
2018-03-24T13:54:25.079Z,13.70
2018-03-24T13:56:52.542Z,13.70
2018-03-24T13:59:20.018Z,13.80
2018-03-24T14:01:47.516Z,13.80
2018-03-24T14:04:15.102Z,13.90
2018-03-24T14:06:43.228Z,13.90
2018-03-24T14:09:11.461Z,13.90
2018-03-24T14:11:39.234Z,13.90
2018-03-24T14:14:06.720Z,13.90
2018-03-24T14:16:34.152Z,13.80
2018-03-24T14:19:01.917Z,13.80
2018-03-24T14:21:29.373Z,13.80
2018-03-24T14:23:57.647Z,13.80
2018-03-24T14:26:25.116Z,13.80
2018-03-24T14:28:52.656Z,13.80
2018-03-24T14:31:20.101Z,13.80
2018-03-24T14:33:47.562Z,13.70
2018-03-24T14:36:15.370Z,13.70
2018-03-24T14:38:43.588Z,13.70
2018-03-24T14:41:11.061Z,13.60
2018-03-24T14:43:38.926Z,13.70
2018-03-24T14:46:06.368Z,13.60
2018-03-24T14:48:34.532Z,13.60
2018-03-24T14:51:02.342Z,13.60
2018-03-24T14:53:29.815Z,13.60
2018-03-24T14:55:58.332Z,13.50
2018-03-24T14:58:26.010Z,13.50
2018-03-24T15:00:53.455Z,13.50
2018-03-24T15:03:20.963Z,13.50
2018-03-24T15:05:49.604Z,13.50
2018-03-24T15:08:17.110Z,13.50
2018-03-24T15:10:45.528Z,13.40
2018-03-24T15:13:13.094Z,13.50
2018-03-24T15:15:40.574Z,13.40
2018-03-24T15:18:08.134Z,13.40
2018-03-24T15:20:37.093Z,13.40
2018-03-24T15:23:04.877Z,13.30
2018-03-24T15:25:32.580Z,13.40
2018-03-24T15:28:00.867Z,13.40
2018-03-24T15:30:41.341Z,13.40
2018-03-24T15:33:20.676Z,13.40
2018-03-24T15:36:01.293Z,13.40
2018-03-24T15:38:28.778Z,13.40
2018-03-24T15:40:57.013Z,13.40
2018-03-24T15:43:24.958Z,13.30
2018-03-24T15:45:52.425Z,13.30
2018-03-24T15:48:19.979Z,13.30
2018-03-24T15:50:47.448Z,13.30
2018-03-24T15:53:14.973Z,13.30
2018-03-24T15:55:42.431Z,13.30
2018-03-24T15:58:10.681Z,13.20
2018-03-24T16:00:39.245Z,13.20
2018-03-24T16:03:06.926Z,13.20
2018-03-24T16:05:35.695Z,13.20
2018-03-24T16:08:03.213Z,13.10
2018-03-24T16:10:31.118Z,13.10
2018-03-24T16:12:58.592Z,13.10
2018-03-24T16:15:26.141Z,13.10
2018-03-24T16:17:54.395Z,13.10
2018-03-24T16:20:22.216Z,13.10
2018-03-24T16:22:49.693Z,13.00
2018-03-24T16:25:17.387Z,13.00
2018-03-24T16:27:44.847Z,13.00
2018-03-24T16:30:12.546Z,13.00
2018-03-24T16:32:41.063Z,13.00
2018-03-24T16:35:09.326Z,13.00
2018-03-24T16:37:36.767Z,12.90
2018-03-24T16:40:04.242Z,12.90
2018-03-24T16:42:32.055Z,12.90
2018-03-24T16:45:00.120Z,12.80
2018-03-24T16:47:27.611Z,12.80
2018-03-24T16:49:55.841Z,12.80
2018-03-24T16:52:23.321Z,12.80
2018-03-24T16:54:51.570Z,12.80
2018-03-24T16:57:19.104Z,12.80
2018-03-24T16:59:46.564Z,12.70
2018-03-24T17:02:14.298Z,12.70
2018-03-24T17:04:42.253Z,12.70
2018-03-24T17:07:10.482Z,12.70
2018-03-24T17:09:38.189Z,12.70
2018-03-24T17:12:06.752Z,12.60
2018-03-24T17:14:34.238Z,12.60
2018-03-24T17:17:02.509Z,12.60
2018-03-24T17:19:29.987Z,12.60
2018-03-24T17:21:57.501Z,12.50
2018-03-24T17:24:24.979Z,12.50
2018-03-24T17:26:53.733Z,12.40
2018-03-24T17:29:21.803Z,12.40
2018-03-24T17:31:49.444Z,12.40
2018-03-24T17:34:17.258Z,12.40
2018-03-24T17:36:45.909Z,12.40
2018-03-24T17:39:13.908Z,12.30
2018-03-24T17:41:42.163Z,12.40
2018-03-24T17:44:09.925Z,12.40
2018-03-24T17:46:37.484Z,12.40
2018-03-24T17:49:05.345Z,12.40
2018-03-24T17:51:32.802Z,12.30
2018-03-24T17:54:00.272Z,12.30
2018-03-24T17:56:28.941Z,12.20
2018-03-24T17:58:56.399Z,12.20
2018-03-24T18:01:24.914Z,12.10
2018-03-24T18:03:53.160Z,12.00
2018-03-24T18:06:21.146Z,12.00
2018-03-24T18:08:49.507Z,11.90
2018-03-24T18:11:18.780Z,11.90
2018-03-24T18:13:46.259Z,11.80
2018-03-24T18:16:13.746Z,11.80
2018-03-24T18:18:41.446Z,11.70
2018-03-24T18:21:09.411Z,11.60
2018-03-24T18:23:37.288Z,11.60
2018-03-24T18:26:05.402Z,11.50
2018-03-24T18:28:33.980Z,11.40
2018-03-24T18:31:01.883Z,11.40
2018-03-24T18:33:29.359Z,11.40
2018-03-24T18:35:57.187Z,11.30
2018-03-24T18:38:25.627Z,11.20
2018-03-24T18:40:53.121Z,11.20
2018-03-24T18:43:21.970Z,11.10
2018-03-24T18:45:49.466Z,11.10
2018-03-24T18:48:17.705Z,11.00
2018-03-24T18:50:45.201Z,11.00
2018-03-24T18:53:12.694Z,11.00
2018-03-24T18:55:40.148Z,10.90
2018-03-24T18:58:07.738Z,10.90
2018-03-24T19:00:35.240Z,10.80
2018-03-24T19:03:03.452Z,10.80
2018-03-24T19:05:31.404Z,10.80
2018-03-24T19:07:58.862Z,10.80
2018-03-24T19:10:26.638Z,10.70
2018-03-24T19:12:54.729Z,10.60
2018-03-24T19:15:22.463Z,10.60
2018-03-24T19:17:50.177Z,10.60
2018-03-24T19:20:18.778Z,10.50
2018-03-24T19:22:46.571Z,10.50
2018-03-24T19:25:14.436Z,10.50
2018-03-24T19:27:42.259Z,10.40
2018-03-24T19:30:10.055Z,10.40
2018-03-24T19:32:37.627Z,10.40
2018-03-24T19:35:05.642Z,10.40
2018-03-24T19:37:33.926Z,10.40
2018-03-24T19:40:01.415Z,10.40
2018-03-24T19:42:28.900Z,10.40
2018-03-24T19:44:56.764Z,10.40
2018-03-24T19:47:24.344Z,10.40
2018-03-24T19:49:52.000Z,10.30
2018-03-24T19:52:19.491Z,10.30
2018-03-24T19:54:47.736Z,10.10
2018-03-24T19:57:15.211Z,10.10
2018-03-24T19:59:42.652Z,10.00
2018-03-24T20:02:10.380Z,10.00
2018-03-24T20:04:38.255Z,9.90
2018-03-24T20:07:05.735Z,9.80
2018-03-24T20:09:33.272Z,9.80
2018-03-24T20:12:01.061Z,9.70
2018-03-24T20:14:28.532Z,9.60
2018-03-24T20:16:55.965Z,9.60
2018-03-24T20:19:23.565Z,9.50
2018-03-24T20:21:52.141Z,9.50
2018-03-24T20:24:20.380Z,9.40
2018-03-24T20:26:48.424Z,9.40
2018-03-24T20:29:15.914Z,9.40
2018-03-24T20:31:43.417Z,9.40
2018-03-24T20:34:11.366Z,9.30
2018-03-24T20:36:40.025Z,9.30
2018-03-24T20:39:07.494Z,9.30
2018-03-24T20:41:35.023Z,9.30
2018-03-24T20:44:02.652Z,9.20
2018-03-24T20:46:30.101Z,9.20
2018-03-24T20:48:57.787Z,9.10
2018-03-24T20:51:25.246Z,9.10
2018-03-24T20:53:52.728Z,9.10
2018-03-24T20:56:20.190Z,9.50
2018-03-24T20:58:47.853Z,10.00
2018-03-24T21:01:15.354Z,10.60
2018-03-24T21:03:43.941Z,11.70
2018-03-24T21:06:11.773Z,11.70
2018-03-24T21:08:40.213Z,12.70
2018-03-24T21:11:08.127Z,12.70
2018-03-24T21:13:35.573Z,13.00
2018-03-24T21:16:03.240Z,12.80
2018-03-24T21:18:30.684Z,12.30
2018-03-24T21:20:58.440Z,11.80
2018-03-24T21:23:25.894Z,11.40
2018-03-24T21:25:53.455Z,11.00
2018-03-24T21:28:21.536Z,10.60
2018-03-24T21:30:49.817Z,10.00
2018-03-24T21:33:19.108Z,9.70
2018-03-24T21:35:47.213Z,9.70
2018-03-24T21:38:14.662Z,9.50
2018-03-24T21:40:43.074Z,9.20
2018-03-24T21:43:11.076Z,9.10
2018-03-24T21:45:38.968Z,9.00
2018-03-24T21:48:06.416Z,8.90
2018-03-24T21:50:34.112Z,8.80
2018-03-24T21:53:02.344Z,8.50
2018-03-24T21:55:29.813Z,8.50
2018-03-24T21:57:58.492Z,8.40
2018-03-24T22:00:26.240Z,8.40
2018-03-24T22:02:53.741Z,8.30
2018-03-24T22:05:22.502Z,8.20
2018-03-24T22:07:50.252Z,8.20
2018-03-24T22:10:18.225Z,8.20
2018-03-24T22:12:45.725Z,8.20
2018-03-24T22:15:13.281Z,8.10
2018-03-24T22:17:41.867Z,8.00
2018-03-24T22:20:09.750Z,8.00
2018-03-24T22:22:37.318Z,8.00
2018-03-24T22:25:04.814Z,8.00
2018-03-24T22:27:32.868Z,8.00
2018-03-24T22:30:00.308Z,8.00
2018-03-24T22:32:27.775Z,8.10
2018-03-24T22:34:55.673Z,8.10
2018-03-24T22:37:23.121Z,8.00
2018-03-24T22:39:50.639Z,8.00
2018-03-24T22:42:18.068Z,7.90
2018-03-24T22:44:46.528Z,7.80
2018-03-24T22:47:14.003Z,7.80
2018-03-24T22:49:42.560Z,7.70
2018-03-24T22:52:10.853Z,7.60
2018-03-24T22:54:39.082Z,7.50
2018-03-24T22:57:06.929Z,7.50
2018-03-24T22:59:34.393Z,7.50
2018-03-24T23:02:01.877Z,7.50
2018-03-24T23:04:30.064Z,7.40
2018-03-24T23:06:57.508Z,7.40
2018-03-24T23:09:25.791Z,7.40
2018-03-24T23:11:53.453Z,7.40
2018-03-24T23:14:20.933Z,7.40
2018-03-24T23:16:48.388Z,7.40
2018-03-24T23:19:16.337Z,7.30
2018-03-24T23:21:43.782Z,7.30
2018-03-24T23:24:11.253Z,7.30
2018-03-24T23:26:39.504Z,7.20
2018-03-24T23:29:07.298Z,7.20
2018-03-24T23:31:34.738Z,7.20
2018-03-24T23:34:03.718Z,7.10
2018-03-24T23:36:31.499Z,7.10
2018-03-24T23:38:59.784Z,7.10
2018-03-24T23:41:28.333Z,7.10
2018-03-24T23:43:56.274Z,7.10
2018-03-24T23:46:24.918Z,7.10
2018-03-24T23:48:52.353Z,7.10
2018-03-24T23:51:19.815Z,7.10
2018-03-24T23:53:47.477Z,7.10
2018-03-24T23:56:15.675Z,7.00
2018-03-24T23:58:43.897Z,6.90
